createdAt,value
2024-01-14T00:47:31.526Z,23.53
2024-01-14T00:50:12.071Z,22.40
2024-01-14T00:52:52.282Z,22.47
2024-01-14T00:55:34.009Z,21.70
2024-01-14T00:58:14.533Z,19.40
2024-01-14T01:00:55.185Z,26.40
2024-01-14T01:03:35.679Z,20.80
2024-01-14T01:06:15.820Z,23.67
2024-01-14T01:08:56.165Z,21.57
2024-01-14T01:11:36.340Z,23.97
2024-01-14T01:14:16.724Z,26.33
2024-01-14T01:16:57.050Z,21.57
2024-01-14T01:19:37.408Z,26.03
2024-01-14T01:22:17.495Z,20.90
2024-01-14T01:24:57.462Z,23.07
2024-01-14T01:27:37.705Z,27.47
2024-01-14T01:30:18.327Z,28.27
2024-01-14T01:32:59.083Z,29.90
2024-01-14T01:35:39.659Z,28.07
2024-01-14T01:38:19.957Z,29.60
2024-01-14T01:41:00.221Z,22.30
2024-01-14T01:43:40.361Z,17.70
2024-01-14T01:46:20.715Z,25.30
2024-01-14T01:49:01.902Z,20.93
2024-01-14T01:51:48.409Z,22.63
2024-01-14T01:54:30.550Z,22.33
2024-01-14T01:57:11.513Z,22.67
2024-01-14T01:59:52.377Z,21.43
2024-01-14T02:02:33.408Z,26.07
2024-01-14T02:05:14.563Z,22.13
2024-01-14T02:07:55.160Z,23.97
2024-01-14T02:10:35.460Z,20.80
2024-01-14T02:13:15.355Z,22.00
2024-01-14T02:15:55.585Z,19.43
2024-01-14T02:18:36.107Z,23.00
2024-01-14T02:21:20.796Z,16.63
2024-01-14T02:24:19.125Z,21.33
2024-01-14T02:26:59.790Z,23.47
2024-01-14T02:29:40.427Z,20.37
2024-01-14T02:32:20.472Z,22.00
2024-01-14T02:35:00.741Z,21.00
2024-01-14T02:37:45.311Z,20.33
2024-01-14T02:40:25.795Z,25.07
2024-01-14T02:43:06.255Z,17.73
2024-01-14T02:45:46.642Z,23.40
2024-01-14T02:48:26.647Z,21.70
2024-01-14T02:51:07.104Z,18.63
2024-01-14T02:53:46.994Z,18.53
2024-01-14T02:56:27.238Z,21.93
2024-01-14T02:59:07.066Z,24.17
2024-01-14T03:01:49.925Z,24.83
2024-01-14T03:04:30.059Z,19.37
2024-01-14T03:07:10.296Z,21.87
2024-01-14T03:09:50.624Z,19.43
2024-01-14T03:12:30.691Z,21.23
2024-01-14T03:15:11.201Z,20.73
2024-01-14T03:17:51.899Z,19.20
2024-01-14T03:20:31.963Z,18.13
2024-01-14T03:23:12.334Z,20.90
2024-01-14T03:25:52.631Z,19.33
2024-01-14T03:28:32.901Z,21.67
2024-01-14T03:31:17.016Z,23.07
2024-01-14T03:33:57.467Z,13.83
2024-01-14T03:36:37.945Z,20.90
2024-01-14T03:39:18.201Z,19.83
2024-01-14T03:41:58.271Z,21.07
2024-01-14T03:44:38.536Z,22.00
2024-01-14T03:47:18.699Z,19.07
2024-01-14T03:49:58.668Z,20.27
2024-01-14T03:52:38.901Z,20.20
2024-01-14T03:55:19.008Z,14.30
2024-01-14T03:57:59.592Z,20.40
2024-01-14T04:00:39.716Z,23.57
2024-01-14T04:03:20.405Z,22.27
2024-01-14T04:06:05.670Z,20.87
2024-01-14T04:08:46.003Z,22.33
2024-01-14T04:11:26.311Z,20.37
2024-01-14T04:14:06.505Z,19.70
2024-01-14T04:16:47.060Z,15.40
2024-01-14T04:19:28.284Z,22.03
2024-01-14T04:22:08.636Z,19.87
2024-01-14T04:24:49.054Z,17.53
2024-01-14T04:27:29.124Z,19.67
2024-01-14T04:30:09.789Z,18.07
2024-01-14T04:32:50.985Z,17.43
2024-01-14T04:35:31.541Z,16.17
2024-01-14T04:38:12.503Z,16.03
2024-01-14T04:40:52.744Z,20.77
2024-01-14T04:43:32.889Z,18.13
2024-01-14T04:46:13.070Z,22.07
2024-01-14T04:48:53.486Z,16.50
2024-01-14T04:51:33.705Z,20.67
2024-01-14T04:54:13.743Z,21.77
2024-01-14T04:56:54.137Z,19.17
2024-01-14T04:59:34.603Z,21.47
2024-01-14T05:02:14.662Z,21.13
2024-01-14T05:04:54.851Z,19.23
2024-01-14T05:07:35.119Z,19.90
2024-01-14T05:10:15.560Z,21.20
2024-01-14T05:12:55.544Z,18.03
2024-01-14T05:15:35.820Z,20.13
2024-01-14T05:18:17.025Z,15.90
2024-01-14T05:20:58.212Z,21.27
2024-01-14T05:23:38.468Z,20.77
2024-01-14T05:26:18.845Z,18.33
2024-01-14T05:29:01.412Z,20.27
2024-01-14T05:31:41.814Z,15.20
2024-01-14T05:34:22.302Z,17.80
2024-01-14T05:37:02.689Z,16.30
2024-01-14T05:39:43.221Z,19.30
2024-01-14T05:42:23.415Z,20.50
2024-01-14T05:45:03.619Z,16.70
2024-01-14T05:47:44.070Z,22.60
2024-01-14T05:50:24.519Z,21.60
2024-01-14T05:53:04.605Z,20.00
2024-01-14T05:55:44.853Z,18.47
2024-01-14T05:58:24.894Z,18.60
2024-01-14T06:01:05.050Z,19.37
2024-01-14T06:03:44.977Z,18.53
2024-01-14T06:06:25.392Z,21.17
2024-01-14T06:09:05.853Z,19.23
2024-01-14T06:11:46.017Z,21.20
2024-01-14T06:14:26.162Z,20.90
2024-01-14T06:17:06.653Z,21.17
2024-01-14T06:19:46.933Z,21.43
2024-01-14T06:22:27.146Z,17.50
2024-01-14T06:25:07.605Z,20.23
2024-01-14T06:27:47.730Z,20.33
2024-01-14T06:30:27.919Z,16.53
2024-01-14T06:33:08.347Z,16.90
2024-01-14T06:35:48.384Z,17.27
2024-01-14T06:38:28.734Z,18.83
2024-01-14T06:41:11.046Z,18.67
2024-01-14T06:43:51.734Z,22.53
2024-01-14T06:46:31.927Z,20.43
2024-01-14T06:49:12.531Z,16.43
2024-01-14T06:51:53.091Z,18.77
2024-01-14T06:54:33.291Z,15.77
2024-01-14T06:57:13.645Z,18.97
2024-01-14T06:59:53.858Z,18.67
2024-01-14T07:02:34.119Z,19.60
2024-01-14T07:05:14.999Z,19.30
2024-01-14T07:07:55.177Z,18.20
2024-01-14T07:10:35.433Z,16.13
2024-01-14T07:13:15.657Z,19.87
2024-01-14T07:15:56.322Z,20.17
2024-01-14T07:18:36.520Z,17.93
2024-01-14T07:21:16.601Z,15.27
2024-01-14T07:23:56.853Z,15.27
2024-01-14T07:26:37.346Z,17.47
2024-01-14T07:29:17.714Z,19.00
2024-01-14T07:31:57.985Z,16.83
2024-01-14T07:34:40.009Z,21.57
2024-01-14T07:37:20.440Z,17.30
2024-01-14T07:40:01.602Z,19.70
2024-01-14T07:42:41.886Z,17.47
2024-01-14T07:45:22.268Z,19.43
2024-01-14T07:48:03.673Z,17.67
2024-01-14T07:50:43.928Z,19.57
2024-01-14T07:53:24.122Z,18.63
2024-01-14T07:56:04.793Z,15.53
2024-01-14T07:58:44.755Z,18.40
2024-01-14T08:01:25.130Z,15.83
2024-01-14T08:04:05.647Z,14.33
2024-01-14T08:06:45.798Z,15.27
2024-01-14T08:09:26.222Z,17.90
2024-01-14T08:12:06.520Z,19.03
2024-01-14T08:14:46.772Z,19.27
2024-01-14T08:17:28.140Z,18.23
2024-01-14T08:20:09.833Z,13.87
2024-01-14T08:22:50.318Z,20.30
2024-01-14T08:25:30.563Z,18.77
2024-01-14T08:28:10.661Z,14.50
2024-01-14T08:30:51.004Z,17.47
2024-01-14T08:33:31.367Z,17.33
2024-01-14T08:36:12.538Z,16.53
2024-01-14T08:38:52.694Z,16.03
2024-01-14T08:41:32.767Z,16.90
2024-01-14T08:44:13.114Z,16.23
2024-01-14T08:46:53.605Z,19.37
2024-01-14T08:49:34.033Z,15.37
2024-01-14T08:52:14.424Z,20.23
2024-01-14T08:54:54.502Z,22.13
2024-01-14T08:57:34.803Z,18.10
2024-01-14T09:00:15.485Z,19.33
2024-01-14T09:02:55.725Z,18.87
2024-01-14T09:05:35.937Z,18.00
2024-01-14T09:08:16.160Z,16.70
2024-01-14T09:10:56.191Z,20.37
2024-01-14T09:13:36.405Z,17.80
2024-01-14T09:16:16.568Z,20.13
2024-01-14T09:18:57.101Z,18.90
2024-01-14T09:21:37.327Z,15.40
2024-01-14T09:24:17.807Z,18.20
2024-01-14T09:26:57.930Z,18.53
2024-01-14T09:29:38.677Z,20.90
2024-01-14T09:32:18.842Z,16.13
2024-01-14T09:34:59.208Z,16.43
2024-01-14T09:37:39.569Z,18.07
2024-01-14T09:40:19.802Z,14.23
2024-01-14T09:43:03.532Z,17.37
2024-01-14T09:45:47.491Z,18.30
2024-01-14T09:48:29.926Z,17.10
2024-01-14T09:51:12.093Z,15.77
2024-01-14T09:53:52.793Z,17.83
2024-01-14T09:56:34.063Z,17.80
2024-01-14T09:59:18.122Z,14.87
2024-01-14T10:01:58.446Z,16.60
2024-01-14T10:04:42.357Z,17.73
2024-01-14T10:07:24.166Z,14.87
2024-01-14T10:10:07.928Z,15.40
2024-01-14T10:12:49.661Z,15.70
2024-01-14T10:15:34.961Z,13.90
2024-01-14T10:18:18.416Z,16.30
2024-01-14T10:21:01.331Z,18.80
2024-01-14T10:23:42.227Z,17.40
2024-01-14T10:26:26.152Z,17.03
2024-01-14T10:29:06.223Z,16.43
2024-01-14T10:31:47.469Z,23.37
2024-01-14T10:34:28.969Z,16.20
2024-01-14T10:37:09.822Z,21.57
2024-01-14T10:39:52.849Z,18.77
2024-01-14T10:42:33.455Z,20.07
2024-01-14T10:45:13.759Z,19.37
2024-01-14T10:47:58.277Z,25.67
2024-01-14T10:50:45.757Z,21.73
2024-01-14T10:53:45.833Z,16.43
2024-01-14T10:56:37.970Z,17.30
2024-01-14T10:59:22.992Z,18.10
2024-01-14T11:02:15.663Z,17.77
2024-01-14T11:04:56.730Z,18.33
2024-01-14T11:07:37.476Z,17.27
2024-01-14T11:10:18.885Z,16.40
2024-01-14T11:13:23.839Z,16.37
2024-01-14T11:16:34.622Z,16.63
2024-01-14T11:19:29.478Z,18.13
2024-01-14T11:22:30.675Z,17.50
2024-01-14T11:25:19.006Z,18.03
2024-01-14T11:27:59.004Z,21.37
2024-01-14T11:30:48.825Z,19.70
2024-01-14T11:33:31.162Z,16.93
2024-01-14T11:36:11.922Z,16.70
2024-01-14T11:38:54.803Z,17.47
2024-01-14T11:41:37.868Z,18.33
2024-01-14T11:44:32.027Z,17.37
2024-01-14T11:47:12.195Z,17.57
2024-01-14T11:49:53.004Z,20.90
2024-01-14T11:52:36.636Z,18.50
2024-01-14T11:55:25.997Z,18.40
2024-01-14T11:58:17.822Z,18.00
2024-01-14T12:00:59.170Z,23.00
2024-01-14T12:03:39.542Z,21.23
2024-01-14T12:06:19.928Z,23.37
2024-01-14T12:09:01.774Z,24.93
2024-01-14T12:11:42.733Z,20.00
2024-01-14T12:14:22.973Z,22.33
2024-01-14T12:17:03.939Z,22.30
2024-01-14T12:19:44.147Z,23.00
2024-01-14T12:22:24.416Z,25.73
2024-01-14T12:25:05.923Z,27.57
2024-01-14T12:27:46.169Z,29.13
2024-01-14T12:30:37.377Z,25.67
2024-01-14T12:33:18.515Z,25.20
2024-01-14T12:35:58.754Z,28.87
2024-01-14T12:38:38.839Z,23.50
2024-01-14T12:41:19.077Z,27.03
2024-01-14T12:43:59.365Z,25.77
2024-01-14T12:46:48.014Z,23.47
2024-01-14T12:49:33.456Z,24.77
2024-01-14T12:52:14.178Z,21.83
2024-01-14T12:54:54.150Z,22.40
2024-01-14T12:57:34.468Z,21.77
2024-01-14T13:00:14.854Z,20.63
2024-01-14T13:02:55.273Z,20.60
2024-01-14T13:05:36.656Z,25.83
2024-01-14T13:08:17.097Z,25.40
2024-01-14T13:10:56.946Z,22.70
2024-01-14T13:13:38.977Z,25.70
2024-01-14T13:16:19.349Z,25.37
2024-01-14T13:18:59.753Z,25.00
2024-01-14T13:21:39.957Z,26.27
2024-01-14T13:24:23.043Z,21.70
2024-01-14T13:27:03.435Z,22.70
2024-01-14T13:29:43.746Z,24.83
2024-01-14T13:32:24.310Z,24.80
2024-01-14T13:35:06.558Z,22.23
2024-01-14T13:37:46.966Z,21.50
2024-01-14T13:40:27.346Z,23.90
2024-01-14T13:43:07.658Z,21.10
2024-01-14T13:45:47.772Z,19.70
2024-01-14T13:48:28.411Z,21.90
2024-01-14T13:51:08.691Z,18.37
2024-01-14T13:53:58.975Z,22.27
2024-01-14T13:56:49.781Z,17.40
2024-01-14T13:59:30.299Z,19.57
2024-01-14T14:02:15.127Z,17.63
2024-01-14T14:05:06.464Z,21.23
2024-01-14T14:07:49.449Z,20.90
2024-01-14T14:10:29.530Z,17.23
2024-01-14T14:13:09.914Z,16.13
2024-01-14T14:15:50.200Z,20.80
2024-01-14T14:18:30.378Z,19.73
2024-01-14T14:21:11.034Z,22.50
2024-01-14T14:23:52.280Z,22.87
2024-01-14T14:26:32.339Z,21.60
2024-01-14T14:29:12.466Z,22.57
2024-01-14T14:31:53.421Z,19.20
2024-01-14T14:34:36.325Z,22.33
2024-01-14T14:37:17.344Z,17.20
2024-01-14T14:39:57.572Z,20.37
2024-01-14T14:42:38.222Z,15.90
2024-01-14T14:45:18.739Z,19.40
2024-01-14T14:47:59.056Z,16.60
2024-01-14T14:50:39.378Z,14.27
2024-01-14T14:53:21.635Z,15.57
2024-01-14T14:56:01.897Z,17.13
2024-01-14T14:58:42.262Z,16.07
2024-01-14T15:01:32.235Z,16.63
2024-01-14T15:04:19.011Z,17.37
2024-01-14T15:06:59.435Z,14.33
2024-01-14T15:09:39.715Z,13.83
2024-01-14T15:12:20.020Z,18.83
2024-01-14T15:15:00.701Z,15.10
2024-01-14T15:17:40.977Z,12.93
2024-01-14T15:20:21.385Z,12.97
2024-01-14T15:23:01.580Z,16.70
2024-01-14T15:25:41.962Z,13.27
2024-01-14T15:28:22.235Z,13.77
2024-01-14T15:31:07.854Z,15.00
2024-01-14T15:33:49.614Z,16.00
2024-01-14T15:36:30.698Z,18.07
2024-01-14T15:39:11.804Z,18.37
2024-01-14T15:41:52.277Z,17.20
2024-01-14T15:44:34.088Z,17.20
2024-01-14T15:47:14.712Z,17.40
2024-01-14T15:49:54.757Z,17.10
2024-01-14T15:52:35.038Z,18.90
2024-01-14T15:55:15.234Z,19.80
2024-01-14T15:57:55.341Z,19.80
2024-01-14T16:00:35.447Z,15.90
2024-01-14T16:03:15.775Z,18.20
2024-01-14T16:05:56.114Z,14.70
2024-01-14T16:08:37.367Z,14.30
2024-01-14T16:11:17.769Z,14.43
2024-01-14T16:13:58.169Z,20.60
2024-01-14T16:16:38.776Z,17.40
2024-01-14T16:19:19.147Z,17.77
2024-01-14T16:21:59.333Z,17.30
2024-01-14T16:24:39.592Z,16.90
2024-01-14T16:27:19.663Z,18.80
2024-01-14T16:30:00.236Z,15.33
2024-01-14T16:32:41.464Z,16.23
2024-01-14T16:35:22.002Z,15.13
2024-01-14T16:38:02.537Z,19.23
2024-01-14T16:40:46.110Z,16.07
2024-01-14T16:43:30.438Z,14.80
2024-01-14T16:46:10.405Z,16.60
2024-01-14T16:48:50.852Z,16.90
2024-01-14T16:51:31.507Z,18.97
2024-01-14T16:54:11.993Z,22.13
2024-01-14T16:56:52.332Z,18.17
2024-01-14T16:59:32.383Z,14.77
2024-01-14T17:02:12.510Z,10.83
2024-01-14T17:04:53.227Z,18.67
2024-01-14T17:07:33.453Z,16.10
2024-01-14T17:10:13.519Z,20.47
2024-01-14T17:12:53.959Z,14.63
2024-01-14T17:15:34.968Z,17.03
2024-01-14T17:18:15.027Z,19.70
2024-01-14T17:20:55.170Z,21.00
2024-01-14T17:23:35.608Z,17.53
2024-01-14T17:26:16.799Z,18.43
2024-01-14T17:28:57.004Z,21.10
2024-01-14T17:31:38.210Z,18.90
2024-01-14T17:34:18.857Z,22.03
2024-01-14T17:37:00.181Z,16.53
2024-01-14T17:39:40.497Z,18.43
2024-01-14T17:42:20.597Z,21.53
2024-01-14T17:45:00.732Z,20.67
2024-01-14T17:47:41.040Z,20.07
2024-01-14T17:50:22.340Z,17.17
2024-01-14T17:53:05.732Z,19.50
2024-01-14T17:55:46.605Z,17.97
2024-01-14T17:58:26.791Z,21.73
2024-01-14T18:01:10.639Z,18.10
2024-01-14T18:03:51.682Z,16.03
2024-01-14T18:06:32.216Z,15.90
2024-01-14T18:09:15.059Z,20.33
2024-01-14T18:11:55.069Z,19.70
2024-01-14T18:14:36.145Z,19.50
2024-01-14T18:17:16.193Z,17.40
2024-01-14T18:19:56.604Z,15.97
2024-01-14T18:22:37.262Z,19.30
2024-01-14T18:25:18.064Z,16.97
2024-01-14T18:27:58.147Z,15.30
2024-01-14T18:30:39.057Z,18.20
2024-01-14T18:33:19.805Z,18.60
2024-01-14T18:36:00.006Z,19.53
2024-01-14T18:38:40.852Z,17.43
2024-01-14T18:41:21.518Z,16.50
2024-01-14T18:44:02.663Z,14.77
2024-01-14T18:46:43.100Z,17.53
2024-01-14T18:49:24.209Z,18.10
2024-01-14T18:52:06.513Z,18.10
2024-01-14T18:54:46.901Z,19.47
2024-01-14T18:57:26.838Z,19.70
2024-01-14T19:00:08.639Z,17.47
2024-01-14T19:02:49.194Z,18.50
2024-01-14T19:05:29.820Z,20.03
2024-01-14T19:08:10.242Z,23.13
2024-01-14T19:10:50.484Z,23.00
2024-01-14T19:13:30.429Z,19.93
2024-01-14T19:16:12.049Z,21.00
2024-01-14T19:18:52.260Z,22.93
2024-01-14T19:21:33.272Z,23.60
2024-01-14T19:24:14.603Z,22.73
2024-01-14T19:26:56.002Z,20.53
2024-01-14T19:29:36.315Z,23.43
2024-01-14T19:32:16.654Z,23.50
2024-01-14T19:34:56.838Z,22.37
2024-01-14T19:37:36.936Z,20.50
2024-01-14T19:40:17.095Z,26.27
2024-01-14T19:42:57.339Z,21.00
2024-01-14T19:45:37.471Z,20.73
2024-01-14T19:48:18.012Z,23.73
2024-01-14T19:50:58.779Z,18.43
2024-01-14T19:53:39.682Z,22.50
2024-01-14T19:56:23.343Z,21.03
2024-01-14T19:59:03.308Z,18.90
2024-01-14T20:01:43.693Z,19.73
2024-01-14T20:04:23.696Z,25.43
2024-01-14T20:07:04.322Z,29.53
2024-01-14T20:09:44.563Z,24.80
2024-01-14T20:12:24.836Z,24.90
2024-01-14T20:15:05.525Z,21.27
2024-01-14T20:17:45.603Z,26.10
2024-01-14T20:20:25.912Z,25.37
2024-01-14T20:23:05.930Z,21.83
2024-01-14T20:25:45.914Z,24.13
2024-01-14T20:28:26.100Z,24.03
2024-01-14T20:31:06.520Z,25.47
2024-01-14T20:33:47.255Z,21.03
2024-01-14T20:36:28.961Z,23.43
2024-01-14T20:39:09.861Z,22.53
2024-01-14T20:41:50.159Z,21.77
2024-01-14T20:44:30.608Z,20.07
2024-01-14T20:47:10.562Z,26.23
2024-01-14T20:49:50.824Z,21.97
2024-01-14T20:52:31.080Z,21.97
2024-01-14T20:55:11.268Z,21.30
2024-01-14T20:57:51.659Z,19.87
2024-01-14T21:00:32.014Z,24.33
2024-01-14T21:03:12.890Z,23.63
2024-01-14T21:05:53.173Z,21.90
2024-01-14T21:08:33.477Z,27.83
2024-01-14T21:11:15.295Z,23.80
2024-01-14T21:13:55.695Z,22.17
2024-01-14T21:16:35.921Z,25.07
2024-01-14T21:19:16.141Z,20.63
2024-01-14T21:21:57.743Z,23.97
2024-01-14T21:24:38.250Z,28.73
2024-01-14T21:27:18.221Z,25.87
2024-01-14T21:29:58.631Z,23.27
2024-01-14T21:32:38.992Z,22.83
2024-01-14T21:35:19.025Z,23.40
2024-01-14T21:37:59.038Z,22.77
2024-01-14T21:40:39.128Z,27.20
2024-01-14T21:43:21.496Z,24.67
2024-01-14T21:46:01.754Z,27.17
2024-01-14T21:48:42.672Z,28.07
2024-01-14T21:51:22.727Z,32.73
2024-01-14T21:54:03.393Z,28.00
2024-01-14T21:56:43.384Z,29.90
2024-01-14T21:59:23.757Z,29.70
2024-01-14T22:02:04.095Z,26.93
2024-01-14T22:04:44.431Z,25.93
2024-01-14T22:07:24.403Z,26.80
2024-01-14T22:10:04.659Z,30.13
2024-01-14T22:12:44.669Z,30.13
2024-01-14T22:15:25.262Z,32.73
2024-01-14T22:18:05.837Z,25.63
2024-01-14T22:20:46.529Z,30.90
2024-01-14T22:23:26.572Z,31.73
2024-01-14T22:26:07.765Z,30.87
2024-01-14T22:28:47.602Z,28.47
2024-01-14T22:31:27.992Z,30.10
2024-01-14T22:34:08.175Z,33.77
2024-01-14T22:36:49.704Z,41.73
2024-01-14T22:39:30.470Z,24.87
2024-01-14T22:42:11.079Z,31.63
2024-01-14T22:44:51.258Z,31.60
2024-01-14T22:47:31.622Z,26.83
2024-01-14T22:50:11.614Z,25.03
2024-01-14T22:52:51.688Z,24.90
2024-01-14T22:55:31.785Z,30.77
2024-01-14T22:58:13.046Z,24.77
2024-01-14T23:00:53.440Z,23.37
2024-01-14T23:03:33.888Z,25.47
2024-01-14T23:06:15.406Z,24.63
2024-01-14T23:08:55.851Z,25.40
2024-01-14T23:11:36.159Z,24.70
2024-01-14T23:14:16.381Z,27.77
2024-01-14T23:16:56.778Z,25.70
2024-01-14T23:19:36.815Z,26.53
2024-01-14T23:22:17.339Z,22.30
2024-01-14T23:24:57.694Z,29.90
2024-01-14T23:27:40.806Z,23.27
2024-01-14T23:30:22.240Z,24.87
2024-01-14T23:33:03.182Z,29.07
2024-01-14T23:35:43.683Z,31.17
2024-01-14T23:38:23.848Z,30.77
2024-01-14T23:41:04.246Z,30.10
2024-01-14T23:43:44.393Z,28.00
2024-01-14T23:46:25.716Z,28.70
2024-01-14T23:49:07.342Z,24.37
2024-01-14T23:51:47.654Z,26.70
2024-01-14T23:54:28.702Z,23.77
2024-01-14T23:57:08.679Z,26.70
2024-01-14T23:59:48.830Z,25.23
